Time;durP1;ratioP1;P1;durP2;ratioP2;P2;SDS_P1;SDS_P2;PMS_P1;PMS_P2;Temp;Humidity;BMP_temperature;BMP_pressure;BME280_temperature;BME280_humidity;BME280_pressure;Samples;Min_cycle;Max_cycle;Signal;HPM_P1;HPM_P2
2023/06/19 00:02:18;;;;;;;7.12;4.95;;;;;;;15.95;100.00;98656.88;4485389;32;20487;-64
2023/06/19 00:04:45;;;;;;;8.00;5.20;;;;;;;15.91;100.00;98652.97;4485400;32;20103;-64
2023/06/19 00:07:12;;;;;;;5.32;4.37;;;;;;;15.91;100.00;98649.47;4485418;31;20085;-64
2023/06/19 00:09:40;;;;;;;7.70;5.05;;;;;;;15.90;100.00;98650.50;4485268;32;20095;-64
2023/06/19 00:12:07;;;;;;;6.60;4.97;;;;;;;15.91;100.00;98654.75;4485401;31;20458;-64
2023/06/19 00:14:36;;;;;;;8.57;5.07;;;;;;;15.88;100.00;98647.19;4485325;31;20096;-64
2023/06/19 00:17:03;;;;;;;8.13;4.68;;;;;;;15.85;100.00;98650.19;4485413;31;20097;-64
2023/06/19 00:19:35;;;;;;;7.47;5.10;;;;;;;15.85;100.00;98652.81;4485142;31;20105;-64
2023/06/19 00:22:04;;;;;;;6.53;5.30;;;;;;;15.82;100.00;98650.53;4485425;31;20088;-64
2023/06/19 00:24:31;;;;;;;11.27;4.60;;;;;;;15.81;100.00;98655.00;4485375;31;20091;-64
2023/06/19 00:27:02;;;;;;;6.60;4.75;;;;;;;15.78;100.00;98650.88;4485214;32;20150;-64
2023/06/19 00:29:30;;;;;;;6.85;5.05;;;;;;;15.74;100.00;98649.53;4485447;31;20579;-63
2023/06/19 00:31:58;;;;;;;7.07;4.70;;;;;;;15.72;100.00;98648.91;4485257;31;20119;-64
2023/06/19 00:34:25;;;;;;;7.70;5.60;;;;;;;15.68;100.00;98649.41;4485230;31;20087;-64
2023/06/19 00:36:56;;;;;;;6.75;5.07;;;;;;;15.67;100.00;98647.75;4485234;31;20093;-64
2023/06/19 00:39:25;;;;;;;7.03;4.80;;;;;;;15.64;100.00;98638.38;4485325;31;20152;-64
2023/06/19 00:41:52;;;;;;;6.97;4.80;;;;;;;15.63;100.00;98646.50;4485137;31;20498;-64
2023/06/19 00:44:20;;;;;;;7.25;4.90;;;;;;;15.64;100.00;98648.12;4485062;31;20084;-64
2023/06/19 00:46:51;;;;;;;8.10;5.30;;;;;;;15.67;100.00;98645.13;4485110;31;20145;-64
2023/06/19 00:49:18;;;;;;;7.95;5.40;;;;;;;15.66;100.00;98641.66;4485277;31;20388;-64
2023/06/19 00:51:45;;;;;;;6.25;5.07;;;;;;;15.64;100.00;98637.56;4485088;31;20145;-64
2023/06/19 00:54:14;;;;;;;7.97;4.95;;;;;;;15.60;100.00;98645.81;4485186;32;20151;-64
2023/06/19 00:56:41;;;;;;;7.97;5.35;;;;;;;15.63;100.00;98638.56;4483603;32;20563;-64
2023/06/19 00:59:16;;;;;;;8.15;5.53;;;;;;;15.59;100.00;98638.91;4483935;32;20623;-64
2023/06/19 01:01:44;;;;;;;8.32;6.03;;;;;;;15.63;100.00;98643.84;4484905;31;20081;-64
2023/06/19 01:04:11;;;;;;;8.05;6.20;;;;;;;15.70;100.00;98642.97;4485195;31;20454;-64
2023/06/19 01:06:47;;;;;;;9.35;6.05;;;;;;;15.85;100.00;98643.09;4483746;32;20131;-64
2023/06/19 01:09:16;;;;;;;9.90;6.15;;;;;;;16.10;100.00;98635.81;4483841;32;20122;-64
2023/06/19 01:11:46;;;;;;;9.95;5.95;;;;;;;16.27;100.00;98625.94;4483687;32;20088;-64
2023/06/19 01:14:19;;;;;;;8.82;5.90;;;;;;;16.25;100.00;98629.78;4484875;31;20385;-64
2023/06/19 01:16:48;;;;;;;10.98;6.05;;;;;;;16.15;100.00;98624.72;4483928;32;20100;-64
2023/06/19 01:19:20;;;;;;;9.45;5.93;;;;;;;16.05;100.00;98622.31;4484959;31;20131;-64
2023/06/19 01:21:50;;;;;;;9.30;5.80;;;;;;;16.08;100.00;98629.91;4484715;31;20084;-64
2023/06/19 01:24:17;;;;;;;6.97;5.55;;;;;;;16.22;100.00;98624.84;4484991;31;20160;-64
2023/06/19 01:26:45;;;;;;;9.48;5.85;;;;;;;16.27;100.00;98627.78;4484759;31;20096;-64
2023/06/19 01:29:14;;;;;;;10.15;5.35;;;;;;;16.27;100.00;98627.78;4483675;32;20401;-64
2023/06/19 01:32:05;;;;;;;8.05;6.20;;;;;;;16.37;100.00;98628.34;4484646;31;20107;-64
2023/06/19 01:34:33;;;;;;;9.43;6.03;;;;;;;16.50;100.00;98623.28;4485009;31;20087;-64
2023/06/19 01:37:01;;;;;;;9.30;6.00;;;;;;;16.56;100.00;98615.63;4483349;32;20096;-64
2023/06/19 01:39:29;;;;;;;9.48;5.68;;;;;;;16.56;99.60;98607.69;4483008;32;20117;-64
2023/06/19 01:41:57;;;;;;;7.62;5.45;;;;;;;16.60;99.34;98603.69;4483082;32;20096;-64
2023/06/19 01:44:24;;;;;;;11.52;5.95;;;;;;;16.56;99.34;98607.69;4483593;32;20084;-64
2023/06/19 01:46:51;;;;;;;11.35;5.85;;;;;;;16.44;100.00;98609.94;4484596;31;20149;-64
2023/06/19 01:49:19;;;;;;;7.72;5.53;;;;;;;16.26;100.00;98610.25;4484587;31;20100;-64
2023/06/19 01:51:46;;;;;;;8.05;5.32;;;;;;;16.03;100.00;98605.00;4483249;32;20167;-64
2023/06/19 01:54:13;;;;;;;9.77;5.40;;;;;;;15.87;100.00;98612.03;4484494;32;20168;-64
2023/06/19 01:56:41;;;;;;;8.00;5.80;;;;;;;15.76;100.00;98615.88;4484502;31;20126;-64
2023/06/19 01:59:08;;;;;;;8.75;5.97;;;;;;;15.75;100.00;98614.22;4484539;31;20116;-64
2023/06/19 02:01:35;;;;;;;8.43;5.65;;;;;;;15.77;100.00;98614.87;4484266;32;20477;-64
2023/06/19 02:04:04;;;;;;;10.23;5.57;;;;;;;15.85;100.00;98610.56;4484422;31;20088;-64
2023/06/19 02:06:31;;;;;;;7.60;5.03;;;;;;;15.86;100.00;98613.03;4484382;31;20434;-64
2023/06/19 02:08:58;;;;;;;7.78;5.10;;;;;;;15.76;100.00;98615.88;4484244;31;20434;-64
2023/06/19 02:11:26;;;;;;;12.48;5.90;;;;;;;15.66;100.00;98617.91;4484551;31;20088;-64
2023/06/19 02:13:53;;;;;;;11.57;5.72;;;;;;;15.57;100.00;98617.12;4484111;32;20484;-64
2023/06/19 02:16:20;;;;;;;23.55;6.22;;;;;;;15.51;100.00;98622.28;4484390;32;20100;-64
2023/06/19 02:18:48;;;;;;;15.82;6.72;;;;;;;15.43;100.00;98623.94;4484206;31;20096;-64
2023/06/19 02:21:15;;;;;;;10.23;6.53;;;;;;;15.47;100.00;98621.78;4483987;32;20141;-64
2023/06/19 02:23:42;;;;;;;17.10;6.30;;;;;;;15.51;100.00;98620.44;4484014;31;20096;-64
2023/06/19 02:26:10;;;;;;;13.25;6.53;;;;;;;15.52;100.00;98615.97;4483864;32;20124;-64
2023/06/19 02:28:38;;;;;;;12.90;5.80;;;;;;;15.46;100.00;98619.31;4484017;32;20084;-64
2023/06/19 02:31:05;;;;;;;15.75;5.87;;;;;;;15.36;100.00;98623.00;4483904;32;20092;-64
2023/06/19 02:33:32;;;;;;;10.10;6.07;;;;;;;15.31;100.00;98624.53;4483879;31;20093;-64
2023/06/19 02:36:00;;;;;;;8.68;6.32;;;;;;;15.28;100.00;98617.75;4484067;32;20100;-64
2023/06/19 02:38:29;;;;;;;7.90;5.72;;;;;;;15.24;100.00;98616.44;4483800;31;20161;-64
2023/06/19 02:41:02;;;;;;;8.60;6.03;;;;;;;15.20;100.00;98623.03;4483919;31;20080;-64
2023/06/19 02:43:30;;;;;;;8.02;5.87;;;;;;;15.18;100.00;98627.69;4484039;31;20508;-64
2023/06/19 02:45:57;;;;;;;8.70;5.55;;;;;;;15.20;100.00;98625.69;4483737;31;20097;-63
2023/06/19 02:48:24;;;;;;;9.02;5.57;;;;;;;15.16;100.00;98627.03;4483727;31;20141;-64
2023/06/19 02:50:53;;;;;;;10.50;5.72;;;;;;;15.15;100.00;98628.03;4484945;31;20157;-64
2023/06/19 02:53:20;;;;;;;9.45;5.90;;;;;;;15.17;100.00;98633.94;4486325;31;20559;-64
2023/06/19 02:55:47;;;;;;;8.05;5.75;;;;;;;15.21;100.00;98630.78;4486012;32;20092;-64
2023/06/19 02:58:14;;;;;;;7.47;5.43;;;;;;;15.32;100.00;98629.63;4485861;32;20096;-64
2023/06/19 03:00:42;;;;;;;9.95;5.65;;;;;;;15.39;100.00;98635.84;4486011;32;20475;-64
2023/06/19 03:03:09;;;;;;;7.22;5.60;;;;;;;15.48;100.00;98628.72;4485925;31;20114;-64
2023/06/19 03:05:37;;;;;;;7.82;5.25;;;;;;;15.60;100.00;98642.38;4485991;32;20089;-64
2023/06/19 03:08:04;;;;;;;10.88;5.85;;;;;;;15.71;100.00;98635.88;4485814;32;20483;-64
2023/06/19 03:10:32;;;;;;;10.93;5.55;;;;;;;15.79;100.00;98638.47;4485792;31;20464;-64
2023/06/19 03:12:59;;;;;;;8.57;5.50;;;;;;;15.84;100.00;98640.62;4485828;31;20081;-64
2023/06/19 03:15:26;;;;;;;7.10;5.25;;;;;;;15.90;100.00;98637.28;4486215;32;20159;-64
2023/06/19 03:17:54;;;;;;;7.22;5.57;;;;;;;15.98;100.00;98631.13;4485681;32;20085;-64
2023/06/19 03:20:21;;;;;;;9.32;5.60;;;;;;;16.10;100.00;98630.53;4485980;32;20100;-64
2023/06/19 03:22:49;;;;;;;8.60;5.55;;;;;;;16.26;100.00;98629.59;4485952;32;20093;-64
2023/06/19 03:25:19;;;;;;;11.73;6.20;;;;;;;16.43;100.00;98632.94;4486241;32;20263;-64
2023/06/19 03:27:47;;;;;;;11.12;5.85;;;;;;;16.56;100.00;98636.78;4486111;32;20096;-64
2023/06/19 03:30:18;;;;;;;8.40;5.30;;;;;;;16.72;100.00;98633.19;4485403;32;20117;-64
2023/06/19 03:32:45;;;;;;;9.07;5.80;;;;;;;16.84;100.00;98637.84;4485630;31;20115;-64
2023/06/19 03:35:14;;;;;;;12.70;5.82;;;;;;;16.92;100.00;98631.69;4485861;32;20093;-64
2023/06/19 03:37:42;;;;;;;10.55;5.72;;;;;;;17.00;100.00;98636.06;4485958;31;20532;-64
2023/06/19 03:40:13;;;;;;;14.60;6.57;;;;;;;16.98;98.71;98635.44;4485971;32;20167;-64
2023/06/19 03:42:41;;;;;;;9.18;6.12;;;;;;;17.16;98.61;98632.41;4485836;32;20110;-64
2023/06/19 03:45:09;;;;;;;11.50;6.22;;;;;;;17.24;95.97;98629.66;4485781;31;20092;-64
2023/06/19 03:47:36;;;;;;;13.62;6.03;;;;;;;17.40;95.79;98638.44;4485609;31;20093;-64
2023/06/19 03:50:04;;;;;;;9.85;5.15;;;;;;;17.53;94.04;98638.59;4485578;31;20505;-64
2023/06/19 03:52:46;;;;;;;9.52;5.85;;;;;;;17.61;92.20;98645.59;4485629;31;20442;-64
2023/06/19 03:55:14;;;;;;;15.73;5.82;;;;;;;17.77;92.81;98647.22;4485467;32;20241;-64
2023/06/19 03:57:41;;;;;;;11.23;6.15;;;;;;;17.86;91.69;98638.16;4485668;31;20104;-64
2023/06/19 04:00:10;;;;;;;11.98;5.55;;;;;;;17.96;91.71;98640.56;4485582;32;20446;-64
2023/06/19 04:02:38;;;;;;;14.05;5.87;;;;;;;17.89;91.30;98637.81;4484781;31;20096;-64
2023/06/19 04:05:06;;;;;;;24.15;6.10;;;;;;;17.99;89.35;98645.47;4484158;31;20888;-64
2023/06/19 04:07:33;;;;;;;15.55;6.10;;;;;;;18.01;90.65;98638.16;4487563;31;20087;-64
2023/06/19 04:10:00;;;;;;;11.00;5.60;;;;;;;18.00;92.40;98639.13;4477184;31;20122;-64
2023/06/19 04:12:28;;;;;;;14.32;6.43;;;;;;;18.19;90.77;98641.16;4479414;31;20142;-64
2023/06/19 04:14:55;;;;;;;14.57;6.75;;;;;;;18.26;92.00;98639.41;4469825;32;20097;-64
2023/06/19 04:17:22;;;;;;;9.18;5.87;;;;;;;18.41;89.31;98642.00;4480680;31;20164;-64
2023/06/19 04:19:50;;;;;;;11.52;5.90;;;;;;;18.55;88.17;98640.28;4484688;31;20114;-63
2023/06/19 04:22:19;;;;;;;8.55;5.30;;;;;;;18.68;88.39;98641.38;4485350;31;20593;-64
2023/06/19 04:24:46;;;;;;;10.73;5.90;;;;;;;18.85;88.49;98637.47;4488853;31;20179;-64
2023/06/19 04:27:13;;;;;;;12.37;5.75;;;;;;;18.86;86.94;98638.28;4485044;31;20138;-64
2023/06/19 04:29:40;;;;;;;12.23;6.32;;;;;;;18.87;87.84;98640.75;4483962;31;20092;-64
2023/06/19 04:32:11;;;;;;;9.18;6.37;;;;;;;18.95;87.30;98639.75;4485671;31;20776;-64
2023/06/19 04:34:41;;;;;;;8.25;5.75;;;;;;;18.85;89.69;98637.47;4485322;31;20105;-64
2023/06/19 04:37:08;;;;;;;10.07;5.37;;;;;;;18.77;89.82;98642.88;4486311;31;20130;-64
2023/06/19 04:39:35;;;;;;;9.13;5.87;;;;;;;18.73;91.00;98639.00;4486932;31;20164;-64
2023/06/19 04:42:03;;;;;;;9.00;5.12;;;;;;;18.74;90.63;98646.75;4486704;31;20139;-64
2023/06/19 04:44:33;;;;;;;8.07;5.22;;;;;;;18.69;88.29;98646.50;4484160;31;20134;-64
2023/06/19 04:47:03;;;;;;;10.68;5.55;;;;;;;18.79;87.56;98656.78;4485861;31;20156;-64
2023/06/19 04:49:31;;;;;;;24.65;6.53;;;;;;;18.97;85.89;98640.41;4485369;31;20596;-63
2023/06/19 04:51:58;;;;;;;10.55;5.50;;;;;;;19.16;85.74;98644.19;4484902;31;20121;-64
2023/06/19 04:54:25;;;;;;;9.55;5.35;;;;;;;19.27;85.27;98646.31;4486612;31;20096;-64
2023/06/19 04:56:53;;;;;;;17.95;6.20;;;;;;;19.51;83.62;98641.50;4483782;31;20809;-63
2023/06/19 04:59:20;;;;;;;27.67;5.97;;;;;;;19.69;85.10;98649.75;4482209;31;20447;-63
2023/06/19 05:01:48;;;;;;;19.35;5.82;;;;;;;19.99;81.20;98653.97;4484888;31;20796;-63
2023/06/19 05:04:15;;;;;;;59.22;8.00;;;;;;;20.15;82.78;98655.41;4482334;31;20096;-63
2023/06/19 05:06:42;;;;;;;69.18;8.00;;;;;;;20.35;79.75;98666.91;4484598;31;20101;-64
2023/06/19 05:09:10;;;;;;;25.75;5.78;;;;;;;20.39;77.68;98660.19;4473097;31;20519;-64
2023/06/19 05:11:38;;;;;;;12.07;6.18;;;;;;;20.56;76.38;98667.75;4485272;31;20097;-64
2023/06/19 05:14:05;;;;;;;10.57;5.65;;;;;;;20.69;75.92;98664.31;4481748;32;20097;-64
2023/06/19 05:16:33;;;;;;;27.48;7.25;;;;;;;20.96;77.53;98670.44;4483996;31;20577;-63
2023/06/19 05:19:03;;;;;;;21.58;8.25;;;;;;;21.13;75.43;98662.00;4483152;31;20092;-64
2023/06/19 05:21:30;;;;;;;12.55;4.97;;;;;;;21.22;74.16;98664.22;4486799;31;20470;-64
2023/06/19 05:23:57;;;;;;;9.52;5.18;;;;;;;21.15;73.25;98663.44;4482196;31;20100;-64
2023/06/19 05:26:26;;;;;;;11.05;5.18;;;;;;;21.28;73.03;98666.03;4482729;31;20118;-64
2023/06/19 05:28:53;;;;;;;9.63;5.03;;;;;;;21.34;73.37;98669.72;4480471;31;78819;-63
2023/06/19 05:31:20;;;;;;;13.25;5.47;;;;;;;21.41;73.82;98675.06;4480209;31;20140;-64
2023/06/19 05:33:47;;;;;;;36.88;6.43;;;;;;;21.47;73.58;98684.03;4479239;31;20147;-63
2023/06/19 05:36:14;;;;;;;10.85;5.53;;;;;;;21.67;73.73;98684.84;4481768;31;20138;-62
2023/06/19 05:38:41;;;;;;;7.47;4.72;;;;;;;21.64;72.12;98693.25;4483414;31;20168;-62
2023/06/19 05:41:09;;;;;;;8.43;4.68;;;;;;;21.82;73.17;98689.06;4480403;31;20156;-61
2023/06/19 05:43:36;;;;;;;10.48;4.80;;;;;;;21.61;71.59;98683.81;4486175;31;20096;-62
2023/06/19 05:46:03;;;;;;;6.28;5.12;;;;;;;21.70;74.03;98684.41;4483474;31;20119;-62
2023/06/19 05:48:31;;;;;;;27.48;5.93;;;;;;;21.83;74.03;98682.72;4483131;31;20209;-62
2023/06/19 05:50:58;;;;;;;13.57;5.82;;;;;;;21.86;73.39;98687.63;4476968;31;20148;-62
2023/06/19 05:53:25;;;;;;;13.27;6.43;;;;;;;22.10;73.42;98686.88;4480207;31;20142;-62
2023/06/19 05:55:52;;;;;;;17.87;6.30;;;;;;;22.15;74.26;98689.72;4482802;31;20446;-63
2023/06/19 05:58:21;;;;;;;13.45;5.70;;;;;;;21.89;74.04;98695.19;4479971;31;20505;-61
2023/06/19 06:00:48;;;;;;;65.12;7.15;;;;;;;22.02;74.59;98697.81;4477215;31;20116;-62
2023/06/19 06:03:15;;;;;;;14.63;5.18;;;;;;;22.09;72.08;98706.59;4474637;31;20188;-62
2023/06/19 06:05:43;;;;;;;28.60;5.72;;;;;;;22.19;74.25;98695.44;4471352;31;21861;-63
2023/06/19 06:08:10;;;;;;;21.17;6.40;;;;;;;22.24;72.67;98700.97;4466188;32;20171;-62
2023/06/19 06:10:37;;;;;;;13.15;6.60;;;;;;;22.45;74.59;98707.84;4470956;31;20140;-63
2023/06/19 06:13:04;;;;;;;133.57;10.68;;;;;;;22.75;73.64;98709.88;4471160;31;20120;-63
2023/06/19 06:15:32;;;;;;;8.38;5.22;;;;;;;22.53;71.08;98705.94;4473811;31;20143;-65
2023/06/19 06:18:00;;;;;;;18.52;5.65;;;;;;;22.77;71.74;98710.50;4478970;31;20450;-64
2023/06/19 06:20:30;;;;;;;40.40;5.78;;;;;;;23.18;69.82;98710.97;4476869;31;20084;-65
2023/06/19 06:22:59;;;;;;;14.15;4.82;;;;;;;23.48;64.72;98712.94;4479667;31;20108;-65
2023/06/19 06:25:27;;;;;;;17.15;4.97;;;;;;;23.76;60.74;98717.75;4478287;31;20091;-63
2023/06/19 06:27:54;;;;;;;9.07;4.78;;;;;;;23.87;60.93;98718.88;4477428;31;20088;-65
2023/06/19 06:30:22;;;;;;;9.10;5.45;;;;;;;23.82;59.50;98714.19;4481542;31;20451;-65
2023/06/19 06:32:50;;;;;;;10.52;4.60;;;;;;;23.74;58.92;98711.81;4481785;31;20130;-65
2023/06/19 06:35:18;;;;;;;22.92;5.35;;;;;;;23.44;59.91;98717.06;4481035;31;20100;-65
2023/06/19 06:37:49;;;;;;;6.22;4.18;;;;;;;23.44;61.80;98720.59;4482215;31;20080;-65
2023/06/19 06:40:16;;;;;;;22.67;5.32;;;;;;;23.52;60.81;98724.81;4480182;31;20111;-64
2023/06/19 06:42:43;;;;;;;9.80;4.62;;;;;;;23.80;59.02;98726.16;4480652;31;20440;-65
2023/06/19 06:45:10;;;;;;;12.15;4.55;;;;;;;23.81;60.58;98717.88;4482136;32;20127;-65
2023/06/19 06:47:39;;;;;;;7.90;4.32;;;;;;;24.01;55.97;98717.69;4478047;31;20256;-64
2023/06/19 06:50:09;;;;;;;9.68;5.28;;;;;;;23.87;54.85;98717.03;4480634;31;20128;-64
2023/06/19 06:52:37;;;;;;;12.37;4.87;;;;;;;23.97;61.69;98729.03;4480952;31;20454;-62
2023/06/19 06:55:05;;;;;;;7.30;4.60;;;;;;;24.04;58.26;98727.09;4480626;31;20136;-64
2023/06/19 06:57:32;;;;;;;7.35;4.55;;;;;;;24.12;56.22;98731.31;4480332;31;20113;-64
2023/06/19 06:59:59;;;;;;;8.60;4.75;;;;;;;23.96;54.40;98730.91;4472647;31;20100;-64
2023/06/19 07:02:27;;;;;;;10.32;5.22;;;;;;;24.09;57.27;98735.28;4482238;31;20144;-64
2023/06/19 07:04:54;;;;;;;8.55;4.80;;;;;;;24.24;54.56;98733.03;4480835;32;20195;-63
2023/06/19 07:07:22;;;;;;;6.47;4.62;;;;;;;24.30;55.21;98727.78;4481569;31;20142;-64
2023/06/19 07:09:49;;;;;;;9.85;4.75;;;;;;;24.28;58.47;98725.34;4479510;31;20160;-64
2023/06/19 07:12:16;;;;;;;16.23;4.97;;;;;;;24.24;53.25;98727.66;4475882;31;20883;-64
2023/06/19 07:14:43;;;;;;;8.82;4.53;;;;;;;24.46;55.34;98735.19;4476666;31;20822;-63
2023/06/19 07:17:11;;;;;;;7.97;4.80;;;;;;;24.58;57.98;98732.56;4480321;31;20142;-63
2023/06/19 07:19:38;;;;;;;7.15;4.87;;;;;;;24.80;55.96;98728.31;4483696;31;20104;-63
2023/06/19 07:22:05;;;;;;;7.90;4.90;;;;;;;24.45;57.64;98725.50;4482136;32;20123;-63
2023/06/19 07:24:32;;;;;;;7.70;4.25;;;;;;;24.67;55.47;98725.84;4482447;31;20123;-63
2023/06/19 07:27:00;;;;;;;8.55;4.65;;;;;;;24.77;56.17;98727.97;4484351;31;20153;-63
2023/06/19 07:29:27;;;;;;;9.65;5.32;;;;;;;25.05;56.43;98727.28;4482840;31;20508;-63
2023/06/19 07:31:55;;;;;;;12.60;5.28;;;;;;;25.14;56.17;98722.38;4466773;32;20139;-63
2023/06/19 07:34:22;;;;;;;8.00;4.82;;;;;;;25.08;55.74;98717.97;4481016;31;20540;-63
2023/06/19 07:36:50;;;;;;;10.90;4.97;;;;;;;25.12;56.90;98717.25;4481144;31;20130;-63
2023/06/19 07:39:17;;;;;;;11.02;4.60;;;;;;;25.28;57.75;98715.72;4467537;31;20085;-63
2023/06/19 07:41:45;;;;;;;9.82;4.12;;;;;;;25.34;54.02;98716.69;4480728;31;20134;-63
2023/06/19 07:44:13;;;;;;;5.90;4.72;;;;;;;25.32;50.44;98716.91;4479098;31;20152;-63
2023/06/19 07:46:40;;;;;;;8.52;4.78;;;;;;;25.18;52.93;98728.94;4479921;31;20125;-63
2023/06/19 07:49:07;;;;;;;13.48;4.93;;;;;;;24.91;51.18;98721.31;4478884;31;20470;-63
2023/06/19 07:51:35;;;;;;;9.02;5.07;;;;;;;24.98;51.60;98729.25;4479453;31;20230;-63
2023/06/19 07:54:02;;;;;;;12.73;4.47;;;;;;;24.93;52.23;98727.25;4483869;31;20096;-63
2023/06/19 07:56:29;;;;;;;9.10;5.45;;;;;;;25.12;58.35;98716.47;4479415;31;20219;-63
2023/06/19 07:58:56;;;;;;;7.35;4.93;;;;;;;25.15;57.90;98726.72;4483456;31;20115;-63
2023/06/19 08:01:24;;;;;;;7.50;5.07;;;;;;;25.39;53.21;98724.88;4482072;32;20470;-63
2023/06/19 08:03:51;;;;;;;8.40;4.90;;;;;;;25.82;53.18;98720.91;4483688;31;20700;-64
2023/06/19 08:06:18;;;;;;;5.15;4.65;;;;;;;26.28;55.07;98730.94;4478379;31;20088;-63
2023/06/19 08:08:46;;;;;;;9.32;4.97;;;;;;;26.43;52.83;98725.03;4478067;31;20130;-63
2023/06/19 08:11:14;;;;;;;14.23;5.47;;;;;;;26.37;53.84;98732.16;4483946;31;20120;-63
2023/06/19 08:13:41;;;;;;;10.40;4.53;;;;;;;26.27;55.07;98721.25;4480265;31;20104;-63
2023/06/19 08:16:10;;;;;;;20.50;5.60;;;;;;;26.09;53.33;98720.41;4475733;31;20114;-64
2023/06/19 08:18:37;;;;;;;15.32;5.20;;;;;;;26.54;55.11;98721.44;4481771;31;20096;-63
2023/06/19 08:21:04;;;;;;;8.73;4.85;;;;;;;26.53;52.18;98726.00;4483876;31;20104;-64
2023/06/19 08:23:31;;;;;;;6.18;4.75;;;;;;;26.20;54.44;98729.44;4477583;31;20096;-65
2023/06/19 08:26:00;;;;;;;8.68;5.05;;;;;;;26.38;54.97;98729.25;4480434;31;20151;-65
2023/06/19 08:28:27;;;;;;;13.70;5.80;;;;;;;26.70;53.75;98730.63;4482013;32;20118;-65
2023/06/19 08:30:54;;;;;;;11.32;5.65;;;;;;;27.15;50.05;98726.22;4481639;32;20163;-65
2023/06/19 08:33:22;;;;;;;11.25;4.87;;;;;;;27.04;50.09;98720.69;4477582;31;20153;-65
2023/06/19 08:35:49;;;;;;;7.55;5.05;;;;;;;26.64;51.32;98720.81;4481068;31;20165;-65
2023/06/19 08:38:17;;;;;;;7.55;5.15;;;;;;;26.69;51.75;98723.59;4470641;31;20217;-65
2023/06/19 08:40:45;;;;;;;7.05;5.10;;;;;;;26.47;52.36;98723.50;4474729;32;20175;-65
2023/06/19 08:43:12;;;;;;;6.78;4.53;;;;;;;26.40;50.23;98726.31;4477009;31;20194;-65
2023/06/19 08:45:39;;;;;;;7.12;5.00;;;;;;;26.31;54.74;98725.06;4477585;32;20112;-64
2023/06/19 08:48:08;;;;;;;11.38;4.78;;;;;;;26.74;55.50;98721.81;4473449;31;20153;-65
2023/06/19 08:50:36;;;;;;;9.50;4.62;;;;;;;26.73;50.07;98728.25;4477853;31;20127;-65
2023/06/19 08:53:03;;;;;;;9.07;4.68;;;;;;;26.70;49.55;98726.06;4478224;31;20100;-65
2023/06/19 08:55:30;;;;;;;13.85;5.15;;;;;;;26.93;48.95;98729.63;4478000;31;20100;-65
2023/06/19 08:57:58;;;;;;;6.87;5.07;;;;;;;27.16;49.11;98722.44;4466960;32;20134;-65
2023/06/19 09:00:27;;;;;;;6.95;4.97;;;;;;;27.02;48.72;98730.06;4469526;32;21608;-65
2023/06/19 09:03:02;;;;;;;9.80;5.65;;;;;;;27.06;51.11;98721.25;4475485;32;20088;-65
2023/06/19 09:05:49;;;;;;;10.35;5.05;;;;;;;27.22;49.34;98732.22;4476243;32;20092;-65
2023/06/19 09:08:21;;;;;;;10.10;6.35;;;;;;;27.03;52.54;98729.81;4476764;31;20177;-65
2023/06/19 09:11:00;;;;;;;7.78;4.50;;;;;;;27.26;45.18;98723.41;4479190;31;20155;-65
2023/06/19 09:13:29;;;;;;;6.93;4.65;;;;;;;27.37;48.13;98720.91;4478425;31;20152;-65
2023/06/19 09:16:04;;;;;;;10.13;4.60;;;;;;;27.70;50.00;98725.34;4479357;31;20456;-65
2023/06/19 09:18:42;;;;;;;13.15;4.65;;;;;;;27.70;43.84;98722.66;4475548;31;20468;-65
2023/06/19 09:21:18;;;;;;;7.90;4.75;;;;;;;27.38;45.65;98726.03;4479780;31;20131;-65
2023/06/19 09:23:46;;;;;;;6.65;4.40;;;;;;;27.47;44.37;98720.22;4476657;31;20068;-65
2023/06/19 09:26:15;;;;;;;6.70;4.45;;;;;;;27.63;46.27;98724.72;4476362;31;20109;-65
2023/06/19 09:28:44;;;;;;;11.77;4.90;;;;;;;28.08;46.69;98725.56;4479334;31;20149;-65
2023/06/19 09:31:12;;;;;;;6.85;4.32;;;;;;;28.39;47.83;98724.00;4477851;31;20497;-65
2023/06/19 09:33:40;;;;;;;9.48;4.57;;;;;;;28.38;45.83;98721.56;4480838;31;20497;-65
2023/06/19 09:36:07;;;;;;;8.98;5.05;;;;;;;28.54;45.71;98730.56;4479997;31;20105;-65
2023/06/19 09:38:38;;;;;;;10.32;5.00;;;;;;;28.33;45.80;98719.63;4475761;31;20139;-65
2023/06/19 09:41:06;;;;;;;6.75;5.20;;;;;;;28.41;48.30;98727.22;4477525;31;20092;-65
2023/06/19 09:43:37;;;;;;;8.02;5.12;;;;;;;28.56;46.01;98717.69;4479465;31;20099;-65
2023/06/19 09:46:06;;;;;;;8.13;5.32;;;;;;;28.77;47.21;98724.09;4479907;31;20122;-65
2023/06/19 09:48:34;;;;;;;11.35;5.35;;;;;;;28.68;45.11;98710.25;4480431;32;20108;-65
2023/06/19 09:51:30;;;;;;;8.00;5.43;;;;;;;28.68;48.56;98721.03;4482756;31;20143;-65
2023/06/19 09:54:00;;;;;;;10.73;4.95;;;;;;;28.24;44.05;98713.06;4484174;31;20126;-65
2023/06/19 09:56:28;;;;;;;7.65;4.80;;;;;;;28.41;46.62;98718.34;4476606;31;20196;-65
2023/06/19 09:58:59;;;;;;;10.50;4.82;;;;;;;28.38;46.77;98711.59;4478125;31;20097;-65
2023/06/19 10:01:29;;;;;;;12.77;4.87;;;;;;;28.56;50.59;98717.69;4468755;32;20089;-64
2023/06/19 10:04:08;;;;;;;11.12;5.20;;;;;;;28.73;47.61;98707.59;4481832;31;20115;-65
2023/06/19 10:06:46;;;;;;;7.07;4.87;;;;;;;28.84;45.78;98692.31;4483468;31;20092;-65
2023/06/19 10:09:14;;;;;;;8.90;5.10;;;;;;;28.62;48.31;98701.31;4486970;31;20506;-65
2023/06/19 10:11:51;;;;;;;8.43;4.55;;;;;;;28.62;44.57;98698.63;4486782;31;20251;-65
2023/06/19 10:14:22;;;;;;;7.10;4.15;;;;;;;28.80;48.23;98702.00;4486086;31;20108;-65
2023/06/19 10:16:49;;;;;;;6.28;4.87;;;;;;;29.01;47.90;98692.97;4486384;31;20092;-65
2023/06/19 10:19:21;;;;;;;9.55;4.90;;;;;;;28.99;44.99;98688.91;4488163;31;20434;-65
2023/06/19 10:21:54;;;;;;;11.23;4.32;;;;;;;28.78;44.53;98682.56;4485635;31;20146;-65
2023/06/19 10:24:24;;;;;;;17.80;5.87;;;;;;;28.62;42.40;98685.13;4483326;31;20087;-65
2023/06/19 10:27:01;;;;;;;8.63;4.30;;;;;;;28.54;49.90;98688.28;4484493;31;20076;-65
2023/06/19 10:29:41;;;;;;;9.52;4.62;;;;;;;28.87;42.02;98686.38;4483195;31;20149;-65
2023/06/19 10:32:15;;;;;;;8.98;4.68;;;;;;;28.53;45.63;98677.78;4483620;31;20104;-65
2023/06/19 10:34:47;;;;;;;6.40;5.20;;;;;;;28.52;47.32;98679.62;4482013;31;20131;-65
2023/06/19 10:37:17;;;;;;;13.80;4.30;;;;;;;28.52;47.59;98684.22;4482958;31;20097;-65
2023/06/19 10:39:44;;;;;;;8.65;5.22;;;;;;;28.84;52.17;98685.03;4484492;32;20510;-65
2023/06/19 10:42:11;;;;;;;5.70;4.47;;;;;;;29.02;50.01;98686.50;4480940;31;20128;-65
2023/06/19 10:44:39;;;;;;;7.10;4.62;;;;;;;29.27;47.73;98686.97;4482218;31;20111;-64
2023/06/19 10:47:07;;;;;;;6.70;4.47;;;;;;;29.37;44.42;98679.72;4484164;31;20114;-64
2023/06/19 10:49:35;;;;;;;7.93;4.85;;;;;;;29.35;47.29;98686.44;4486151;31;20120;-66
2023/06/19 10:52:05;;;;;;;6.85;4.93;;;;;;;29.41;45.90;98682.69;4486113;31;20158;-66
2023/06/19 10:54:32;;;;;;;11.43;4.65;;;;;;;29.58;43.24;98678.97;4479556;31;20123;-66
2023/06/19 10:57:04;;;;;;;5.43;4.43;;;;;;;29.29;39.59;98684.78;4485877;31;20108;-65
2023/06/19 10:59:33;;;;;;;8.63;5.12;;;;;;;29.10;39.59;98685.22;4482616;31;20097;-66
2023/06/19 11:02:00;;;;;;;17.62;5.30;;;;;;;29.44;47.79;98681.38;4483214;31;20578;-66
2023/06/19 11:04:28;;;;;;;6.30;4.57;;;;;;;29.80;40.77;98676.91;4482410;31;20091;-66
2023/06/19 11:06:56;;;;;;;8.65;6.35;;;;;;;29.77;41.24;98674.75;4479493;31;20092;-66
2023/06/19 11:09:25;;;;;;;10.93;5.37;;;;;;;29.52;40.37;98673.56;4483792;31;20130;-66
2023/06/19 11:11:52;;;;;;;7.55;5.10;;;;;;;29.25;42.10;98670.19;4484594;31;20740;-65
2023/06/19 11:14:20;;;;;;;9.00;4.75;;;;;;;29.22;41.36;98662.63;4482397;31;20480;-65
2023/06/19 11:16:47;;;;;;;8.55;5.28;;;;;;;29.40;44.49;98666.75;4485286;31;20096;-65
2023/06/19 11:19:17;;;;;;;6.22;4.60;;;;;;;29.88;43.94;98668.31;4481053;31;20080;-66
2023/06/19 11:21:50;;;;;;;39.47;6.78;;;;;;;29.91;45.69;98662.38;4483033;32;20104;-65
2023/06/19 11:24:17;;;;;;;12.82;4.97;;;;;;;30.11;41.71;98668.88;4483045;31;20095;-66
2023/06/19 11:26:51;;;;;;;5.90;4.82;;;;;;;29.96;40.08;98668.88;4487338;31;20152;-65
2023/06/19 11:29:21;;;;;;;6.53;5.03;;;;;;;29.95;39.70;98670.75;4482745;31;20154;-65
2023/06/19 11:31:49;;;;;;;9.27;5.62;;;;;;;29.94;42.74;98665.63;4485320;31;20155;-63
2023/06/19 11:34:18;;;;;;;11.10;4.90;;;;;;;29.90;46.91;98659.94;4483043;31;20135;-64